Time;durP1;ratioP1;P1;durP2;ratioP2;P2;SDS_P1;SDS_P2;PMS_P1;PMS_P2;Temp;Humidity;BMP_temperature;BMP_pressure;BME280_temperature;BME280_humidity;BME280_pressure;Samples;Min_cycle;Max_cycle;Signal;HPM_P1;HPM_P2
2023/04/03 00:02:13;;;;;;;55.22;26.23;;;;;;;3.15;74.14;101621.38;4899985;28;20084;-56
2023/04/03 00:04:47;;;;;;;51.80;25.55;;;;;;;3.23;73.92;101627.69;4895623;28;20089;-55
2023/04/03 00:07:21;;;;;;;50.55;24.55;;;;;;;3.50;73.96;101630.34;4899055;28;20086;-56
2023/04/03 00:09:52;;;;;;;47.17;25.60;;;;;;;3.41;73.38;101594.72;4898820;28;20068;-56
2023/04/03 00:12:24;;;;;;;46.38;26.35;;;;;;;3.73;72.96;101620.78;4887350;28;20054;-56
2023/04/03 00:14:59;;;;;;;50.33;24.33;;;;;;;3.69;72.82;101613.75;4899011;28;20903;-56
2023/04/03 00:17:35;;;;;;;53.83;24.80;;;;;;;3.70;72.88;101602.59;4896606;28;20047;-54
2023/04/03 00:20:07;;;;;;;47.33;25.33;;;;;;;3.89;72.86;101610.13;4898840;28;20110;-53
2023/04/03 00:22:41;;;;;;;59.78;24.38;;;;;;;4.02;72.57;101605.31;4898742;28;20124;-51
2023/04/03 00:25:12;;;;;;;47.88;24.13;;;;;;;4.16;72.27;101614.41;4898173;28;20053;-53
2023/04/03 00:27:44;;;;;;;54.97;23.63;;;;;;;4.33;72.15;101608.06;4895142;28;21265;-54
2023/04/03 00:30:18;;;;;;;54.72;20.50;;;;;;;4.47;71.69;101594.66;4887192;28;20099;-52
2023/04/03 00:32:51;;;;;;;40.05;20.13;;;;;;;4.61;71.58;101588.16;4894410;28;20059;-53
2023/04/03 00:35:24;;;;;;;41.83;20.38;;;;;;;4.92;71.03;101609.78;4889073;28;20126;-50
2023/04/03 00:37:58;;;;;;;46.40;19.38;;;;;;;4.96;70.36;101607.28;4882006;28;20445;-54
2023/04/03 00:40:34;;;;;;;39.28;19.05;;;;;;;4.93;70.20;101588.22;4889113;28;20053;-53
2023/04/03 00:43:14;;;;;;;38.03;18.15;;;;;;;5.16;69.83;101602.66;4879091;28;20060;-53
2023/04/03 00:45:48;;;;;;;36.38;17.30;;;;;;;5.28;69.41;101615.09;4883335;28;20061;-53
2023/04/03 00:48:25;;;;;;;30.42;16.65;;;;;;;5.37;69.27;101604.09;4887814;28;20049;-53
2023/04/03 00:50:57;;;;;;;39.17;17.25;;;;;;;5.46;68.91;101599.13;4879793;28;20057;-54
2023/04/03 00:53:36;;;;;;;38.15;18.38;;;;;;;5.59;68.67;101590.84;4889205;28;20053;-53
2023/04/03 00:56:11;;;;;;;40.22;17.73;;;;;;;5.68;68.43;101584.13;4880128;28;20063;-54
2023/04/03 00:58:46;;;;;;;47.30;18.83;;;;;;;5.78;67.14;101591.28;4888733;28;20057;-54
2023/04/03 01:01:23;;;;;;;33.50;16.48;;;;;;;5.93;67.04;101585.59;4879824;28;20064;-53
2023/04/03 01:03:56;;;;;;;35.33;16.85;;;;;;;5.97;66.35;101583.16;4883127;28;20050;-54
2023/04/03 01:06:32;;;;;;;40.55;16.48;;;;;;;6.14;66.25;101580.97;4889046;28;20053;-54
2023/04/03 01:09:07;;;;;;;31.05;14.73;;;;;;;6.25;65.25;101578.59;4887057;28;20171;-54
2023/04/03 01:11:39;;;;;;;33.90;16.30;;;;;;;6.27;65.00;101576.91;4877718;28;20132;-55
2023/04/03 01:14:10;;;;;;;37.20;16.27;;;;;;;6.36;64.50;101576.22;4889442;28;20060;-56
2023/04/03 01:16:42;;;;;;;33.38;15.30;;;;;;;6.35;64.62;101570.16;4888612;28;20552;-56
2023/04/03 01:19:19;;;;;;;34.70;16.58;;;;;;;6.37;65.26;101573.69;4888699;28;20044;-56
2023/04/03 01:22:18;;;;;;;44.35;14.82;;;;;;;6.47;64.80;101580.81;4879456;28;20045;-57
2023/04/03 01:24:53;;;;;;;40.63;14.30;;;;;;;6.46;63.95;101579.06;4878214;28;20055;-57
2023/04/03 01:27:24;;;;;;;33.28;14.80;;;;;;;6.52;64.40;101572.25;4888251;28;22647;-56
2023/04/03 01:29:57;;;;;;;42.08;14.65;;;;;;;6.52;64.17;101572.25;4891938;28;20131;-56
2023/04/03 01:32:30;;;;;;;37.63;13.90;;;;;;;6.66;64.34;101566.50;4889566;28;20056;-56
2023/04/03 01:35:02;;;;;;;37.70;15.65;;;;;;;6.79;63.64;101571.94;4894193;28;20060;-56
2023/04/03 01:37:34;;;;;;;35.65;15.40;;;;;;;6.91;63.60;101562.69;4894333;28;20056;-57
2023/04/03 01:40:07;;;;;;;38.58;13.85;;;;;;;7.03;63.58;101566.34;4890403;28;20062;-56
2023/04/03 01:42:38;;;;;;;36.35;14.07;;;;;;;7.04;62.70;101562.88;4894692;28;20534;-58
2023/04/03 01:45:11;;;;;;;35.72;13.38;;;;;;;7.10;62.46;101563.00;4894086;28;20143;-57
2023/04/03 01:47:44;;;;;;;26.63;13.40;;;;;;;7.23;61.61;101564.13;4893777;28;20081;-57
2023/04/03 01:50:16;;;;;;;38.08;14.07;;;;;;;7.31;61.51;101563.41;4887429;28;20054;-54
2023/04/03 01:52:47;;;;;;;42.95;12.80;;;;;;;7.24;59.90;101561.56;4896874;28;20404;-55
2023/04/03 01:55:19;;;;;;;32.25;11.68;;;;;;;7.05;60.58;101523.06;4897101;28;20052;-55
2023/04/03 01:57:50;;;;;;;31.15;11.32;;;;;;;7.33;59.20;101553.88;4896441;28;20149;-54
2023/04/03 02:00:22;;;;;;;23.77;9.68;;;;;;;7.40;58.89;101551.41;4897560;28;20048;-55
2023/04/03 02:02:56;;;;;;;31.00;9.75;;;;;;;7.49;57.49;101551.59;4897907;28;20053;-55
2023/04/03 02:05:37;;;;;;;27.13;9.07;;;;;;;7.46;57.93;101520.31;4883110;28;20094;-52
2023/04/03 02:08:28;;;;;;;28.50;9.20;;;;;;;7.67;56.67;101536.25;4892696;28;20048;-57
2023/04/03 02:11:28;;;;;;;22.20;8.50;;;;;;;7.65;56.38;101511.09;4880852;28;21298;-57
2023/04/03 02:13:59;;;;;;;19.45;8.43;;;;;;;7.96;57.10;101528.91;4897680;28;20092;-57
2023/04/03 02:16:32;;;;;;;24.25;9.18;;;;;;;8.08;55.68;101533.41;4896309;28;20053;-57
2023/04/03 02:19:05;;;;;;;19.85;7.72;;;;;;;8.16;54.77;101526.59;4896856;28;20203;-58
2023/04/03 02:21:37;;;;;;;19.23;8.10;;;;;;;8.33;55.16;101523.31;4886863;28;20084;-58
2023/04/03 02:24:09;;;;;;;24.13;7.82;;;;;;;8.48;54.40;101533.09;4894475;28;20067;-57
2023/04/03 02:26:41;;;;;;;16.80;8.30;;;;;;;8.56;53.85;101527.13;4888892;28;20086;-57
2023/04/03 02:29:12;;;;;;;19.42;7.35;;;;;;;8.71;53.60;101516.03;4896783;28;20476;-57
2023/04/03 02:31:44;;;;;;;17.38;7.13;;;;;;;8.69;53.10;101506.44;4897144;28;20534;-57
2023/04/03 02:34:19;;;;;;;22.88;8.52;;;;;;;8.20;53.41;101424.22;4886725;28;20046;-57
2023/04/03 02:36:51;;;;;;;19.50;7.93;;;;;;;8.61;53.04;101509.84;4896369;28;20106;-58
2023/04/03 02:39:23;;;;;;;24.77;8.90;;;;;;;8.53;53.98;101511.44;4896398;28;20117;-58
2023/04/03 02:41:56;;;;;;;20.50;7.35;;;;;;;8.63;54.77;101502.88;4892435;28;20131;-57
2023/04/03 02:44:31;;;;;;;24.48;6.00;;;;;;;8.71;54.05;101509.91;4896700;28;20049;-58
2023/04/03 02:47:07;;;;;;;14.25;6.70;;;;;;;8.77;54.11;101499.56;4878628;28;20207;-57
2023/04/03 02:49:41;;;;;;;17.25;6.78;;;;;;;8.82;53.40;101503.09;4900933;28;20051;-57
2023/04/03 02:52:16;;;;;;;14.85;6.15;;;;;;;8.76;53.34;101503.03;4900389;28;20063;-57
2023/04/03 02:54:48;;;;;;;22.15;7.03;;;;;;;8.86;54.68;101504.84;4890636;28;20071;-57
2023/04/03 02:57:19;;;;;;;12.90;6.68;;;;;;;8.88;56.48;101486.66;4901274;28;20106;-56
2023/04/03 02:59:51;;;;;;;22.77;7.05;;;;;;;8.84;55.82;101490.97;4900411;28;20164;-57
2023/04/03 03:02:23;;;;;;;15.75;6.45;;;;;;;8.87;56.41;101496.19;4899701;28;20659;-57
2023/04/03 03:04:56;;;;;;;12.48;6.18;;;;;;;8.95;56.66;101489.31;4899298;28;20158;-57
2023/04/03 03:07:28;;;;;;;17.40;6.70;;;;;;;8.85;56.57;101487.50;4900434;28;20064;-57
2023/04/03 03:10:00;;;;;;;16.85;6.20;;;;;;;8.84;56.60;101480.53;4899426;28;20102;-57
2023/04/03 03:12:31;;;;;;;14.45;6.13;;;;;;;8.79;57.03;101482.22;4900098;28;20066;-56
2023/04/03 03:15:03;;;;;;;18.38;6.55;;;;;;;8.85;57.45;101485.75;4899837;28;20140;-57
2023/04/03 03:17:36;;;;;;;19.30;7.10;;;;;;;8.97;57.23;101481.53;4898333;28;20050;-57
2023/04/03 03:20:11;;;;;;;17.02;6.93;;;;;;;8.92;56.31;101484.09;4899600;28;20053;-57
2023/04/03 03:22:43;;;;;;;18.60;6.57;;;;;;;8.93;57.39;101485.81;4899391;28;20660;-57
2023/04/03 03:25:16;;;;;;;15.82;7.35;;;;;;;8.81;56.85;101480.47;4899321;28;20054;-55
2023/04/03 03:27:48;;;;;;;14.27;6.68;;;;;;;8.92;56.96;101483.22;4899046;28;20139;-57
2023/04/03 03:30:19;;;;;;;20.42;7.40;;;;;;;8.90;57.50;101470.16;4899545;28;20063;-56
2023/04/03 03:32:58;;;;;;;15.20;6.90;;;;;;;8.88;57.34;101474.47;4910752;28;20040;-58
2023/04/03 03:35:36;;;;;;;16.90;7.88;;;;;;;8.85;57.56;101479.66;4875897;28;20357;-57
2023/04/03 03:38:08;;;;;;;25.73;8.10;;;;;;;8.78;57.43;101454.41;4897576;28;20606;-57
2023/04/03 03:40:40;;;;;;;16.75;7.07;;;;;;;8.75;57.10;101446.56;4906735;28;20052;-57
2023/04/03 03:43:11;;;;;;;25.23;7.20;;;;;;;8.96;56.73;101478.06;4904888;28;20058;-57
2023/04/03 03:45:43;;;;;;;13.65;6.65;;;;;;;8.79;55.75;101456.16;4906553;28;20048;-57
2023/04/03 03:48:14;;;;;;;17.83;7.35;;;;;;;8.79;55.91;101482.22;4906104;28;20055;-57
2023/04/03 03:50:47;;;;;;;21.17;7.28;;;;;;;8.91;56.64;101487.56;4901826;28;20099;-56
2023/04/03 03:53:19;;;;;;;18.05;6.57;;;;;;;8.93;56.70;101480.59;4907237;28;20055;-57
2023/04/03 03:55:51;;;;;;;14.73;6.82;;;;;;;8.96;56.13;101480.66;4895678;28;20637;-57
2023/04/03 03:58:24;;;;;;;13.30;6.63;;;;;;;8.97;56.56;101476.31;4905215;28;20056;-57
2023/04/03 04:01:03;;;;;;;19.58;6.25;;;;;;;8.95;55.61;101485.84;4898950;28;20088;-56
2023/04/03 04:03:35;;;;;;;16.67;6.82;;;;;;;8.99;56.33;101478.06;4901859;28;20128;-56
2023/04/03 04:06:09;;;;;;;16.75;6.68;;;;;;;9.17;56.01;101471.28;4906314;28;20136;-57
2023/04/03 04:08:42;;;;;;;14.20;5.63;;;;;;;9.20;55.73;101468.69;4906713;28;20106;-57
2023/04/03 04:11:13;;;;;;;15.55;6.90;;;;;;;9.19;56.42;101469.56;4906009;28;20436;-57
2023/04/03 04:13:45;;;;;;;17.73;7.15;;;;;;;9.17;57.18;101473.91;4904614;28;20459;-56
2023/04/03 04:16:16;;;;;;;20.10;7.10;;;;;;;9.19;57.66;101472.19;4907076;28;20053;-56
2023/04/03 04:18:48;;;;;;;17.98;6.90;;;;;;;9.17;57.06;101481.72;4904142;28;20048;-57
2023/04/03 04:21:21;;;;;;;12.93;6.70;;;;;;;9.24;56.92;101480.91;4905738;28;20056;-55
2023/04/03 04:23:53;;;;;;;17.80;6.22;;;;;;;9.10;56.05;101467.75;4906216;28;20048;-56
2023/04/03 04:26:24;;;;;;;11.27;5.88;;;;;;;9.09;56.44;101472.97;4906455;28;20060;-57
2023/04/03 04:28:56;;;;;;;22.63;7.13;;;;;;;9.05;56.13;101470.31;4898006;28;20053;-57
2023/04/03 04:31:28;;;;;;;14.48;6.75;;;;;;;9.14;56.18;101471.25;4905770;28;20041;-56
2023/04/03 04:33:59;;;;;;;18.50;6.75;;;;;;;9.24;55.81;101475.69;4906616;28;20059;-57
2023/04/03 04:36:33;;;;;;;12.60;5.70;;;;;;;9.12;55.18;101457.34;4904462;28;20044;-56
2023/04/03 04:39:07;;;;;;;16.38;6.10;;;;;;;9.09;55.47;101460.78;4895316;28;20509;-56
2023/04/03 04:41:39;;;;;;;13.75;6.10;;;;;;;9.06;55.37;101464.25;4907288;28;20052;-56
2023/04/03 04:44:11;;;;;;;15.73;6.30;;;;;;;8.99;55.26;101475.47;4905533;28;20391;-55
2023/04/03 04:46:43;;;;;;;12.50;6.22;;;;;;;8.96;55.31;101465.03;4904370;28;20113;-56
2023/04/03 04:49:15;;;;;;;12.30;6.53;;;;;;;8.97;55.31;101471.97;4905704;28;20193;-56
2023/04/03 04:51:48;;;;;;;17.38;7.13;;;;;;;8.94;55.25;101471.94;4906084;28;20126;-56
2023/04/03 04:54:21;;;;;;;23.63;6.82;;;;;;;8.83;54.94;101447.50;4905529;28;20511;-56
2023/04/03 04:56:53;;;;;;;16.77;6.78;;;;;;;8.89;54.90;101458.00;4904157;28;20144;-56
2023/04/03 04:59:25;;;;;;;17.90;7.25;;;;;;;8.93;54.59;101466.72;4903312;28;20139;-56
2023/04/03 05:01:57;;;;;;;21.63;6.65;;;;;;;8.91;54.97;101461.50;4906124;28;20056;-56
2023/04/03 05:04:28;;;;;;;12.23;6.85;;;;;;;8.87;55.41;101457.09;4902373;28;20676;-55
2023/04/03 05:07:02;;;;;;;22.25;7.20;;;;;;;8.81;55.54;101462.25;4904289;28;20040;-56
2023/04/03 05:09:33;;;;;;;20.75;7.10;;;;;;;8.78;55.81;101449.19;4904614;28;20163;-56
2023/04/03 05:12:05;;;;;;;17.08;6.60;;;;;;;8.94;56.27;101447.63;4898793;28;20057;-56
2023/04/03 05:14:37;;;;;;;16.02;6.90;;;;;;;8.96;56.21;101438.97;4903312;28;21167;-56
2023/04/03 05:17:08;;;;;;;14.75;6.63;;;;;;;8.95;56.26;101431.97;4905203;28;20045;-56
2023/04/03 05:19:40;;;;;;;13.93;6.95;;;;;;;9.01;57.07;101432.03;4902685;28;20062;-56
2023/04/03 05:22:13;;;;;;;15.05;7.43;;;;;;;9.07;56.72;101436.44;4903609;28;20457;-56
2023/04/03 05:24:45;;;;;;;17.77;7.07;;;;;;;8.96;55.91;101432.84;4903475;28;20519;-55
2023/04/03 05:27:16;;;;;;;22.02;7.93;;;;;;;8.91;55.88;101435.44;4905981;28;20478;-56
2023/04/03 05:29:52;;;;;;;17.08;7.03;;;;;;;8.74;56.21;101421.38;4905453;28;20165;-56
2023/04/03 05:32:27;;;;;;;16.00;8.00;;;;;;;8.66;56.88;101425.59;4898780;28;20111;-55
2023/04/03 05:34:59;;;;;;;15.85;6.85;;;;;;;8.13;56.66;101359.91;4907069;28;20055;-56
2023/04/03 05:37:32;;;;;;;19.02;6.95;;;;;;;8.48;57.42;101421.94;4904825;28;20072;-55
2023/04/03 05:40:04;;;;;;;12.27;6.85;;;;;;;8.46;58.26;101421.06;4903300;28;20056;-56
2023/04/03 05:42:36;;;;;;;17.38;7.05;;;;;;;8.36;57.61;101421.78;4895624;28;20921;-53
2023/04/03 05:45:09;;;;;;;19.73;7.63;;;;;;;8.30;58.02;101413.91;4905368;28;20048;-55
2023/04/03 05:47:41;;;;;;;19.50;8.30;;;;;;;8.37;58.14;101416.59;4905627;28;20685;-56
2023/04/03 05:50:14;;;;;;;20.27;8.63;;;;;;;8.54;58.34;101416.81;4903532;28;20048;-55
2023/04/03 05:52:50;;;;;;;20.88;8.77;;;;;;;8.38;58.80;101360.16;4900838;28;20061;-55
2023/04/03 05:55:21;;;;;;;27.27;8.48;;;;;;;8.60;58.49;101409.06;4904283;28;20490;-56
2023/04/03 05:57:53;;;;;;;17.83;7.85;;;;;;;8.54;57.91;101409.00;4902543;28;20127;-55
2023/04/03 06:00:25;;;;;;;18.27;8.15;;;;;;;8.51;58.41;101402.88;4905249;28;20055;-55
2023/04/03 06:02:57;;;;;;;24.15;9.13;;;;;;;8.45;58.41;101393.28;4904282;28;20061;-55
2023/04/03 06:05:29;;;;;;;19.10;7.63;;;;;;;8.44;59.05;101394.16;4905056;28;20052;-54
2023/04/03 06:08:02;;;;;;;31.05;8.40;;;;;;;8.46;58.61;101394.16;4905317;28;20680;-54
2023/04/03 06:10:34;;;;;;;17.67;8.65;;;;;;;8.41;58.54;101391.47;4904273;28;20056;-56
2023/04/03 06:13:07;;;;;;;18.15;8.40;;;;;;;8.34;58.32;101400.09;4897190;28;20049;-55
2023/04/03 06:15:39;;;;;;;20.00;7.80;;;;;;;8.20;57.96;101392.97;4902202;28;20064;-55
2023/04/03 06:18:11;;;;;;;19.13;7.95;;;;;;;8.11;58.53;101398.09;4905402;28;20175;-55
2023/04/03 06:20:43;;;;;;;23.13;8.35;;;;;;;8.06;58.70;101386.72;4903240;28;20573;-56
2023/04/03 06:23:16;;;;;;;17.17;7.80;;;;;;;8.04;58.72;101390.16;4904349;28;20220;-54
2023/04/03 06:25:47;;;;;;;19.15;8.25;;;;;;;7.94;59.01;101389.19;4895231;28;20118;-56
2023/04/03 06:28:19;;;;;;;16.50;7.65;;;;;;;7.86;59.10;101385.59;4903770;28;20127;-55
2023/04/03 06:30:51;;;;;;;24.90;7.72;;;;;;;7.83;59.30;101380.38;4902674;28;20049;-56
2023/04/03 06:33:22;;;;;;;16.85;7.55;;;;;;;7.74;59.47;101387.22;4903108;28;20052;-56
2023/04/03 06:36:00;;;;;;;26.33;7.57;;;;;;;7.76;59.22;101380.31;4904226;28;20049;-55
2023/04/03 06:38:33;;;;;;;23.10;8.02;;;;;;;7.65;58.96;101392.28;4893934;28;20060;-56
2023/04/03 06:41:05;;;;;;;21.02;8.65;;;;;;;7.54;59.33;101383.47;4898419;28;20069;-55
2023/04/03 06:43:37;;;;;;;19.73;8.55;;;;;;;7.54;59.49;101399.09;4904960;28;21450;-55
2023/04/03 06:46:08;;;;;;;22.17;8.45;;;;;;;7.50;59.29;101397.28;4903778;28;20620;-55
2023/04/03 06:48:43;;;;;;;17.75;7.50;;;;;;;7.37;59.69;101395.34;4901582;28;20376;-55
2023/04/03 06:51:21;;;;;;;19.23;7.50;;;;;;;7.17;59.62;101369.94;4901576;28;20125;-55
2023/04/03 06:53:55;;;;;;;20.70;7.70;;;;;;;7.33;59.36;101405.69;4903236;28;20056;-56
2023/04/03 06:56:29;;;;;;;22.48;7.55;;;;;;;7.28;59.31;101402.16;4891898;28;20064;-55
2023/04/03 06:59:01;;;;;;;22.50;7.88;;;;;;;6.61;59.67;101307.53;4903422;28;20102;-55
2023/04/03 07:01:40;;;;;;;23.98;8.85;;;;;;;7.07;59.98;101401.81;4903776;28;20345;-55
2023/04/03 07:04:15;;;;;;;24.08;8.10;;;;;;;7.08;60.17;101413.97;4894360;28;20169;-53
2023/04/03 07:06:48;;;;;;;22.52;8.23;;;;;;;7.07;60.32;101412.22;4891561;28;20076;-55
2023/04/03 07:09:24;;;;;;;23.98;9.30;;;;;;;7.06;59.91;101410.44;4902651;28;20407;-55
2023/04/03 07:11:57;;;;;;;24.38;10.23;;;;;;;7.04;59.91;101406.94;4893324;28;20530;-55
2023/04/03 07:14:29;;;;;;;33.42;9.15;;;;;;;6.96;59.40;101413.75;4902436;28;20539;-55
2023/04/03 07:16:59;;;;;;;17.40;7.65;;;;;;;6.92;59.89;101407.66;4903155;28;21433;-54
2023/04/03 07:19:31;;;;;;;29.40;8.93;;;;;;;6.94;59.36;101394.66;4903431;28;20053;-55
2023/04/03 07:22:01;;;;;;;24.08;8.15;;;;;;;6.85;59.45;101396.25;4904118;28;20049;-56
2023/04/03 07:24:33;;;;;;;28.85;8.52;;;;;;;6.74;59.36;101397.81;4901352;28;20078;-55
2023/04/03 07:27:05;;;;;;;32.08;10.25;;;;;;;6.67;59.52;101395.97;4903862;28;20164;-54
2023/04/03 07:29:37;;;;;;;20.85;9.55;;;;;;;6.57;59.62;101399.25;4903654;28;20131;-54
2023/04/03 07:32:08;;;;;;;27.27;8.20;;;;;;;6.47;59.62;101395.59;4902949;28;20072;-55
2023/04/03 07:34:39;;;;;;;26.92;10.02;;;;;;;6.50;59.79;101397.38;4903581;28;20052;-55
2023/04/03 07:37:10;;;;;;;24.38;8.10;;;;;;;6.34;59.39;101386.72;4907364;28;20182;-54
2023/04/03 07:39:46;;;;;;;23.90;7.28;;;;;;;6.35;59.15;101398.81;4906966;28;20090;-54
2023/04/03 07:42:16;;;;;;;19.73;7.45;;;;;;;6.36;59.46;101400.56;4894721;28;20071;-56
2023/04/03 07:44:47;;;;;;;20.33;7.90;;;;;;;6.27;60.04;101387.44;4906483;28;20147;-55
2023/04/03 07:47:17;;;;;;;22.10;7.90;;;;;;;6.30;60.07;101379.69;4906062;28;20431;-56
2023/04/03 07:49:48;;;;;;;26.73;9.30;;;;;;;6.23;59.67;101372.63;4908130;28;20070;-56
2023/04/03 07:52:19;;;;;;;26.23;9.35;;;;;;;6.14;60.57;101382.81;4906137;28;20055;-56
2023/04/03 07:54:51;;;;;;;26.05;9.02;;;;;;;6.10;60.77;101365.47;4906444;28;20049;-55
2023/04/03 07:57:21;;;;;;;27.05;8.18;;;;;;;6.01;61.01;101367.00;4906450;28;20061;-56
2023/04/03 07:59:52;;;;;;;26.65;7.75;;;;;;;5.94;61.35;101372.94;4903883;28;20055;-55
2023/04/03 08:02:23;;;;;;;20.13;8.18;;;;;;;5.88;61.53;101377.97;4906662;28;20048;-56
2023/04/03 08:04:53;;;;;;;37.63;13.32;;;;;;;5.87;61.87;101384.00;4906931;28;22066;-54
2023/04/03 08:07:25;;;;;;;21.98;9.98;;;;;;;5.78;61.68;101391.59;4913870;28;20088;-56
2023/04/03 08:09:59;;;;;;;19.90;8.63;;;;;;;5.70;62.62;101396.59;4904972;28;21032;-55
2023/04/03 08:12:32;;;;;;;16.98;7.38;;;;;;;5.58;63.32;101402.38;4907177;28;20380;-56
2023/04/03 08:15:06;;;;;;;17.33;6.63;;;;;;;5.37;63.73;101392.44;4901385;28;22128;-54
2023/04/03 08:17:36;;;;;;;17.05;7.43;;;;;;;5.31;64.73;101406.94;4904403;28;20045;-56
2023/04/03 08:20:11;;;;;;;16.20;7.00;;;;;;;5.17;64.95;101415.28;4906923;28;20048;-56
2023/04/03 08:22:42;;;;;;;18.30;8.70;;;;;;;4.98;65.44;101407.91;4917004;28;20048;-57
2023/04/03 08:25:14;;;;;;;22.35;10.93;;;;;;;4.94;65.91;101411.22;4906427;28;20044;-55
2023/04/03 08:27:45;;;;;;;23.67;12.15;;;;;;;4.75;66.40;101400.44;4897220;28;20050;-56
2023/04/03 08:30:20;;;;;;;18.10;8.75;;;;;;;4.64;66.36;101399.28;4906511;28;20135;-55
2023/04/03 08:32:56;;;;;;;14.18;6.72;;;;;;;4.83;66.84;101415.28;4904012;28;20091;-56
2023/04/03 08:35:28;;;;;;;17.83;8.10;;;;;;;4.76;66.65;101428.06;4895944;28;20061;-55
2023/04/03 08:38:00;;;;;;;27.52;7.70;;;;;;;4.68;67.55;101424.41;4905312;28;20135;-56
2023/04/03 08:40:33;;;;;;;20.38;8.30;;;;;;;4.45;68.17;101394.47;4906176;28;20492;-56
2023/04/03 08:43:31;;;;;;;20.40;7.82;;;;;;;4.67;67.78;101433.03;4905814;28;20109;-56
2023/04/03 08:46:07;;;;;;;21.67;8.50;;;;;;;4.71;67.98;101434.81;4903088;28;20048;-56
2023/04/03 08:48:43;;;;;;;19.45;9.15;;;;;;;4.68;67.92;101434.75;4895741;28;20059;-56
2023/04/03 08:51:21;;;;;;;17.95;10.65;;;;;;;4.63;67.70;101426.00;4895316;28;20577;-54
2023/04/03 08:54:00;;;;;;;27.48;10.52;;;;;;;4.51;67.74;101430.84;4903341;28;20052;-55
2023/04/03 08:56:35;;;;;;;28.00;13.90;;;;;;;4.18;68.11;101400.63;4894341;28;20098;-56
2023/04/03 08:59:12;;;;;;;29.85;12.18;;;;;;;4.23;68.79;101424.91;4897514;28;20058;-56
2023/04/03 09:01:45;;;;;;;28.88;10.00;;;;;;;4.22;68.75;101428.34;4903177;28;20088;-54
2023/04/03 09:04:18;;;;;;;25.08;10.20;;;;;;;4.03;68.98;101395.03;4895271;28;20053;-56
2023/04/03 09:06:56;;;;;;;28.55;11.35;;;;;;;4.09;69.03;101421.03;4904679;28;20052;-55
2023/04/03 09:09:38;;;;;;;30.00;10.55;;;;;;;4.01;69.38;101427.72;4894468;28;20052;-56
2023/04/03 09:12:17;;;;;;;66.18;25.42;;;;;;;3.85;69.50;101427.28;4893187;28;20488;-55
2023/04/03 09:14:57;;;;;;;33.15;15.02;;;;;;;3.34;69.96;101357.66;4895063;28;20120;-54
2023/04/03 09:17:43;;;;;;;33.08;13.80;;;;;;;3.57;70.00;101419.50;4893990;28;20071;-54
2023/04/03 09:20:23;;;;;;;32.17;12.43;;;;;;;3.52;70.61;101436.56;4890319;28;20121;-55
2023/04/03 09:22:55;;;;;;;21.17;10.55;;;;;;;3.47;71.12;101433.88;4902433;28;20271;-56
2023/04/03 09:25:29;;;;;;;28.52;9.95;;;;;;;3.48;71.40;101447.66;4900403;28;20058;-56
2023/04/03 09:28:03;;;;;;;25.88;10.77;;;;;;;3.26;71.36;101434.06;4897570;28;20067;-55
2023/04/03 09:30:48;;;;;;;27.38;8.82;;;;;;;3.30;71.82;101455.72;4900702;28;20438;-55
2023/04/03 09:33:20;;;;;;;24.10;9.95;;;;;;;3.22;72.38;101455.44;4893246;28;20052;-55
2023/04/03 09:35:51;;;;;;;24.02;9.23;;;;;;;3.13;72.65;101452.56;4902069;28;20140;-56
2023/04/03 09:38:25;;;;;;;26.77;10.73;;;;;;;2.84;72.90;101423.19;4901063;28;20080;-55
2023/04/03 09:41:07;;;;;;;24.83;10.52;;;;;;;2.89;73.57;101453.50;4892379;28;20491;-55
2023/04/03 09:43:40;;;;;;;23.67;10.90;;;;;;;2.77;74.55;101458.22;4892823;28;20482;-55
2023/04/03 09:46:47;;;;;;;26.33;11.98;;;;;;;2.74;74.66;101473.63;4897642;28;20057;-55
2023/04/03 09:49:20;;;;;;;24.80;11.27;;;;;;;2.63;74.91;101460.34;4890663;28;20045;-55
2023/04/03 09:51:51;;;;;;;22.02;10.63;;;;;;;2.56;75.56;101464.41;4902028;28;20477;-55
2023/04/03 09:54:40;;;;;;;24.38;10.55;;;;;;;2.46;75.67;101467.47;4903936;28;20438;-55
2023/04/03 09:57:13;;;;;;;21.08;9.90;;;;;;;2.41;76.02;101463.88;4892917;28;20125;-55
2023/04/03 09:59:49;;;;;;;29.08;11.20;;;;;;;2.27;76.25;101447.00;4900197;28;20468;-56
2023/04/03 10:02:37;;;;;;;31.95;12.07;;;;;;;2.28;76.86;101472.00;4901597;28;20145;-56
2023/04/03 10:05:29;;;;;;;30.05;12.85;;;;;;;1.98;77.09;101431.34;4889563;28;20703;-55
2023/04/03 10:08:23;;;;;;;32.72;12.88;;;;;;;2.23;77.50;101481.25;4890669;28;20688;-55
2023/04/03 10:11:13;;;;;;;27.08;13.45;;;;;;;1.96;77.63;101458.78;4891346;28;20121;-55
2023/04/03 10:13:53;;;;;;;;;;;;;;;2.06;77.84;101490.94;4891733;28;20407;-54
2023/04/03 10:16:30;;;;;;;29.52;13.65;;;;;;;1.91;78.12;101475.75;4900077;28;19936;-54
2023/04/03 10:19:15;;;;;;;30.65;14.95;;;;;;;1.94;78.27;101491.34;4902664;28;21200;-56
2023/04/03 10:21:50;;;;;;;29.35;14.35;;;;;;;1.83;78.40;101493.50;4892172;28;20080;-55
2023/04/03 10:24:29;;;;;;;32.10;11.45;;;;;;;1.20;78.27;101416.34;4900721;28;20057;-55
2023/04/03 10:27:05;;;;;;;23.52;11.15;;;;;;;1.55;78.87;101486.41;4891925;28;20052;-56
2023/04/03 10:29:46;;;;;;;24.80;10.50;;;;;;;1.38;78.92;101471.97;4892472;28;20446;-54
2023/04/03 10:32:38;;;;;;;28.60;15.93;;;;;;;1.29;79.41;101481.06;4889361;28;20045;-56
2023/04/03 10:35:20;;;;;;;35.10;15.35;;;;;;;1.11;79.71;101472.59;4876477;28;20056;-55
2023/04/03 10:38:03;;;;;;;32.22;14.88;;;;;;;1.00;80.34;101468.69;4875898;28;20404;-54
2023/04/03 10:40:43;;;;;;;24.63;14.00;;;;;;;1.11;81.10;101488.03;4873707;28;20050;-55
2023/04/03 10:43:26;;;;;;;25.83;13.80;;;;;;;1.06;81.62;101494.69;4884725;28;20052;-55
2023/04/03 10:46:05;;;;;;;25.58;13.02;;;;;;;0.97;81.61;101478.84;4875832;28;20072;-55
2023/04/03 10:49:03;;;;;;;25.80;13.48;;;;;;;1.04;81.79;101496.31;4876777;28;20061;-55
2023/04/03 10:51:45;;;;;;;33.80;14.68;;;;;;;0.95;nan;101491.69;4877416;28;20054;-56
2023/04/03 10:54:26;;;;;;;36.95;12.05;;;;;;;0.93;81.02;101492.44;4879169;28;20050;-55
2023/04/03 10:56:59;;;;;;;40.80;18.90;;;;;;;0.75;81.18;101485.69;4875709;28;20064;-55
2023/04/03 10:59:48;;;;;;;36.95;18.52;;;;;;;0.64;80.98;101480.03;4875654;28;20707;-55
2023/04/03 11:02:33;;;;;;;28.27;13.85;;;;;;;0.53;81.40;101490.72;4874972;28;20060;-55
2023/04/03 11:05:20;;;;;;;20.52;11.40;;;;;;;0.39;81.93;101472.94;4873023;28;20510;-55
2023/04/03 11:07:55;;;;;;;22.20;11.00;;;;;;;0.28;82.35;101471.63;4875318;28;20060;-55
2023/04/03 11:10:37;;;;;;;33.97;11.10;;;;;;;0.41;82.89;101471.34;4883144;28;20099;-56
2023/04/03 11:13:15;;;;;;;25.52;11.07;;;;;;;0.41;83.35;101470.47;4882537;28;20056;-55
2023/04/03 11:15:46;;;;;;;23.73;10.43;;;;;;;0.38;83.56;101460.94;4879187;28;20103;-55
2023/04/03 11:18:23;;;;;;;22.92;12.02;;;;;;;0.24;83.82;101445.69;4887999;28;20442;-55
2023/04/03 11:21:04;;;;;;;22.50;11.88;;;;;;;0.48;84.23;101471.63;4888334;28;20045;-56
2023/04/03 11:23:38;;;;;;;27.67;12.38;;;;;;;0.53;83.93;101470.13;4883409;28;20586;-55
2023/04/03 11:26:29;;;;;;;26.13;14.45;;;;;;;0.25;84.20;101422.63;4878671;28;20087;-55
2023/04/03 11:29:06;;;;;;;33.50;17.17;;;;;;;0.56;84.69;101462.53;4879064;28;20053;-55
2023/04/03 11:32:10;;;;;;;25.25;12.65;;;;;;;0.68;85.44;101475.94;4877366;28;20091;-54
2023/04/03 11:34:47;;;;;;;27.63;12.73;;;;;;;0.70;85.14;101473.41;4877520;28;20049;-55
2023/04/03 11:37:31;;;;;;;30.60;13.52;;;;;;;0.71;85.20;101460.63;4878842;28;20045;-55
2023/04/03 11:40:08;;;;;;;96.65;40.30;;;;;;;0.61;84.69;101453.31;4878279;28;20511;-55
2023/04/03 11:42:42;;;;;;;76.00;32.03;;;;;;;0.50;85.08;101454.53;4878483;28;20049;-56
2023/04/03 11:45:54;;;;;;;83.43;32.13;;;;;;;0.51;84.84;101461.47;4888946;28;20164;-55
2023/04/03 11:48:51;;;;;;;58.22;25.17;;;;;;;0.33;84.66;101462.41;4866391;28;20392;-55
2023/04/03 11:51:46;;;;;;;49.20;22.02;;;;;;;0.23;84.47;101455.09;4877719;28;21175;-55
2023/04/03 11:54:49;;;;;;;59.58;23.83;;;;;;;0.14;84.55;101449.53;4861245;28;20126;-55
2023/04/03 11:57:57;;;;;;;114.97;38.80;;;;;;;0.05;84.66;101455.16;4878266;28;20067;-55
2023/04/03 12:01:04;;;;;;;405.50;94.63;;;;;;;-0.04;85.04;101455.63;4877426;28;20081;-55